Time;durP1;ratioP1;P1;durP2;ratioP2;P2;SDS_P1;SDS_P2;PMS_P1;PMS_P2;Temp;Humidity;BMP_temperature;BMP_pressure;BME280_temperature;BME280_humidity;BME280_pressure;Samples;Min_cycle;Max_cycle;Signal;HPM_P1;HPM_P2
2023/09/19 00:00:21;;;;;;;1.50;0.93;;;;;24.30;99692.00;;;;2577882;22;20278;-63
2023/09/19 00:01:22;;;;;;;1.45;1.00;;;;;24.30;99706.00;;;;2562033;23;20243;-62
2023/09/19 00:02:22;;;;;;;1.30;0.70;;;;;24.30;99700.00;;;;2577395;23;20196;-62
2023/09/19 00:03:22;;;;;;;1.70;1.20;;;;;24.30;99711.00;;;;2577010;23;20192;-63
2023/09/19 00:04:28;;;;;;;1.10;0.80;;;;;24.30;99711.00;;;;2577565;23;20203;-62
2023/09/19 00:05:29;;;;;;;1.83;0.93;;;;;24.30;99720.00;;;;2590322;22;20249;-62
2023/09/19 00:06:31;;;;;;;1.30;0.90;;;;;24.30;99707.00;;;;2575525;22;26043;-61
2023/09/19 00:07:31;;;;;;;1.15;0.77;;;;;24.30;99712.00;;;;2564230;23;20192;-63
2023/09/19 00:08:33;;;;;;;1.30;0.70;;;;;24.30;99708.00;;;;2564832;22;20197;-63
2023/09/19 00:09:37;;;;;;;1.17;0.70;;;;;24.30;99710.00;;;;2589944;22;20202;-61
2023/09/19 00:10:39;;;;;;;1.52;1.13;;;;;24.30;99715.00;;;;2590335;22;20188;-62
2023/09/19 00:11:41;;;;;;;1.23;0.90;;;;;24.30;99711.00;;;;2562683;22;20862;-61
2023/09/19 00:12:43;;;;;;;0.82;0.65;;;;;24.30;99705.00;;;;2577386;22;20438;-63
2023/09/19 00:13:43;;;;;;;1.38;0.95;;;;;24.30;99717.00;;;;2591555;22;20195;-61
2023/09/19 00:14:44;;;;;;;1.03;0.70;;;;;24.30;99722.00;;;;2591150;22;20195;-61
2023/09/19 00:15:48;;;;;;;1.30;0.87;;;;;24.30;99724.00;;;;2591689;22;20195;-61
2023/09/19 00:16:49;;;;;;;1.07;0.77;;;;;24.30;99721.00;;;;2576366;22;20192;-62
2023/09/19 00:17:52;;;;;;;1.25;0.88;;;;;24.30;99725.00;;;;2591513;22;20464;-62
2023/09/19 00:18:52;;;;;;;1.25;0.70;;;;;24.30;99723.00;;;;2577250;23;20203;-61
2023/09/19 00:19:53;;;;;;;1.13;0.90;;;;;24.30;99722.00;;;;2578214;22;20192;-62
2023/09/19 00:20:56;;;;;;;1.43;0.80;;;;;24.30;99720.00;;;;2589634;22;20195;-64
2023/09/19 00:21:57;;;;;;;1.20;1.00;;;;;24.30;99721.00;;;;2577510;22;20261;-62
2023/09/19 00:22:59;;;;;;;1.30;0.77;;;;;24.30;99727.00;;;;2554035;23;20192;-63
2023/09/19 00:23:59;;;;;;;1.77;0.88;;;;;24.30;99721.00;;;;2565612;22;20549;-63
2023/09/19 00:25:00;;;;;;;1.50;0.90;;;;;24.30;99723.00;;;;2591651;22;20273;-62
2023/09/19 00:26:01;;;;;;;1.25;0.70;;;;;24.30;99719.00;;;;2576636;22;20199;-61
2023/09/19 00:27:01;;;;;;;1.10;0.80;;;;;24.30;99722.00;;;;2577680;23;20238;-63
2023/09/19 00:28:01;;;;;;;2.00;0.80;;;;;24.30;99733.00;;;;2565536;23;20360;-63
2023/09/19 00:29:03;;;;;;;1.00;0.60;;;;;24.30;99731.00;;;;2577164;23;20203;-62
2023/09/19 00:30:04;;;;;;;1.15;0.75;;;;;24.30;99730.00;;;;2591953;22;20215;-63
2023/09/19 00:31:04;;;;;;;1.10;0.80;;;;;24.30;99737.00;;;;2576394;22;20506;-61
2023/09/19 00:32:07;;;;;;;2.30;0.80;;;;;24.30;99730.00;;;;2591631;22;20809;-61
2023/09/19 00:33:07;;;;;;;1.15;0.80;;;;;24.30;99732.00;;;;2591528;22;20199;-63
2023/09/19 00:34:10;;;;;;;2.40;0.80;;;;;24.30;99731.00;;;;2591302;22;20187;-62
2023/09/19 00:35:10;;;;;;;1.65;0.98;;;;;24.30;99738.00;;;;2591196;22;20195;-62
2023/09/19 00:36:11;;;;;;;1.97;0.70;;;;;24.30;99731.00;;;;2575101;22;20191;-62
2023/09/19 00:37:12;;;;;;;1.20;0.90;;;;;24.30;99737.00;;;;2591690;22;20257;-62
2023/09/19 00:38:15;;;;;;;1.20;0.85;;;;;24.30;99733.00;;;;2590732;22;20199;-62
2023/09/19 00:39:16;;;;;;;1.45;0.90;;;;;24.30;99739.00;;;;2564776;23;20280;-64
2023/09/19 00:40:19;;;;;;;1.40;0.87;;;;;24.30;99738.00;;;;2566495;23;20252;-62
2023/09/19 00:41:20;;;;;;;1.15;0.70;;;;;24.30;99741.00;;;;2563174;23;20283;-61
2023/09/19 00:42:21;;;;;;;1.25;0.70;;;;;24.30;99742.00;;;;2579077;22;20283;-62
2023/09/19 00:43:23;;;;;;;1.87;1.00;;;;;24.30;99734.00;;;;2590887;22;20195;-62
2023/09/19 00:44:24;;;;;;;1.73;0.70;;;;;24.30;99741.00;;;;2591763;22;20222;-63
2023/09/19 00:45:24;;;;;;;1.13;0.70;;;;;24.30;99739.00;;;;2590922;22;20229;-63
2023/09/19 00:46:25;;;;;;;1.67;0.90;;;;;24.30;99705.00;;;;2576964;22;20196;-62
2023/09/19 00:47:25;;;;;;;1.07;0.70;;;;;24.30;99725.00;;;;2578405;22;20224;-62
2023/09/19 00:48:28;;;;;;;1.17;0.80;;;;;24.30;99734.00;;;;2564569;23;20424;-61
2023/09/19 00:49:30;;;;;;;1.10;0.80;;;;;24.30;99750.00;;;;2565247;23;20617;-62
2023/09/19 00:50:32;;;;;;;1.20;0.90;;;;;24.30;99742.00;;;;2565330;23;20193;-62
2023/09/19 00:51:32;;;;;;;1.30;0.80;;;;;24.30;99732.00;;;;2551103;23;20189;-62
2023/09/19 00:52:33;;;;;;;1.27;0.73;;;;;24.30;99737.00;;;;2553052;23;20425;-63
2023/09/19 00:53:34;;;;;;;1.35;1.10;;;;;24.30;99750.00;;;;2541079;23;20218;-61
2023/09/19 00:54:35;;;;;;;1.17;0.80;;;;;24.30;99736.00;;;;2564824;23;20192;-63
2023/09/19 00:55:37;;;;;;;1.60;0.80;;;;;24.30;99744.00;;;;2578092;23;20193;-61
2023/09/19 00:56:40;;;;;;;1.10;0.80;;;;;24.30;99744.00;;;;2551607;23;20203;-61
2023/09/19 00:57:41;;;;;;;1.88;0.93;;;;;24.30;99742.00;;;;2565533;23;20208;-63
2023/09/19 00:58:41;;;;;;;1.00;0.73;;;;;24.30;99749.00;;;;2566468;23;20221;-62
2023/09/19 00:59:42;;;;;;;1.00;0.80;;;;;24.30;99745.00;;;;2576788;23;20192;-62
2023/09/19 01:00:44;;;;;;;1.40;0.90;;;;;24.30;99741.00;;;;2578229;23;20267;-61
2023/09/19 01:01:45;;;;;;;1.25;0.73;;;;;24.30;99743.00;;;;2550242;23;20188;-61
2023/09/19 01:02:46;;;;;;;1.17;0.80;;;;;24.30;99751.00;;;;2553884;23;20185;-62
2023/09/19 01:03:46;;;;;;;1.50;0.63;;;;;24.30;99752.00;;;;2553742;23;20472;-62
2023/09/19 01:04:47;;;;;;;1.20;0.73;;;;;24.30;99753.00;;;;2552580;23;20212;-61
2023/09/19 01:05:47;;;;;;;1.70;0.70;;;;;24.30;99755.00;;;;2553411;23;20193;-62
2023/09/19 01:06:52;;;;;;;1.63;0.90;;;;;24.30;99769.00;;;;2562980;22;20571;-62
2023/09/19 01:07:53;;;;;;;1.10;0.68;;;;;24.30;99752.00;;;;2591390;22;20499;-61
2023/09/19 01:08:55;;;;;;;1.53;0.80;;;;;24.30;99752.00;;;;2589278;22;20226;-62
2023/09/19 01:09:58;;;;;;;1.40;0.77;;;;;24.30;99752.00;;;;2591510;22;20241;-62
2023/09/19 01:11:02;;;;;;;1.02;0.70;;;;;24.30;99756.00;;;;2563176;23;20185;-62
2023/09/19 01:12:04;;;;;;;1.30;0.93;;;;;24.30;99755.00;;;;2565993;23;20209;-62
2023/09/19 01:13:21;;;;;;;1.30;0.70;;;;;24.30;99763.00;;;;2553784;23;20711;-62
2023/09/19 01:14:43;;;;;;;2.17;0.90;;;;;24.30;99757.00;;;;2559304;23;20205;-63
2023/09/19 01:16:31;;;;;;;1.33;0.70;;;;;24.30;99762.00;;;;2584915;22;20460;-61
2023/09/19 01:17:35;;;;;;;2.78;1.00;;;;;24.30;99767.00;;;;2570296;23;20200;-62
2023/09/19 01:18:55;;;;;;;1.15;0.80;;;;;24.30;99769.00;;;;2572202;23;20200;-62
2023/09/19 01:20:07;;;;;;;1.42;0.75;;;;;24.30;99766.00;;;;2582331;22;20697;-61
2023/09/19 01:21:29;;;;;;;1.10;0.80;;;;;24.30;99769.00;;;;2575681;22;20199;-63
2023/09/19 01:22:41;;;;;;;1.20;0.80;;;;;24.30;99761.00;;;;2565599;23;20701;-61
2023/09/19 01:23:59;;;;;;;1.77;1.00;;;;;24.30;99773.00;;;;2547450;23;20221;-62
2023/09/19 01:25:54;;;;;;;1.30;0.98;;;;;24.30;99749.00;;;;2561177;23;20188;-61
2023/09/19 01:27:12;;;;;;;1.70;0.80;;;;;24.30;99604.00;;;;2521240;23;20206;-62
2023/09/19 01:28:30;;;;;;;1.48;0.77;;;;;24.30;99664.00;;;;2525626;23;20269;-62
2023/09/19 01:29:39;;;;;;;1.55;0.90;;;;;24.30;99775.00;;;;2564053;22;20196;-62
2023/09/19 01:30:40;;;;;;;1.33;0.98;;;;;24.30;99771.00;;;;2591044;22;20495;-62
2023/09/19 01:31:40;;;;;;;1.70;0.87;;;;;24.30;99774.00;;;;2550865;23;20331;-61
2023/09/19 01:32:41;;;;;;;1.00;0.90;;;;;24.20;99636.00;;;;2551486;23;21226;-66
2023/09/19 01:34:00;;;;;;;1.53;0.80;;;;;24.20;99785.00;;;;2565470;23;20552;-62
2023/09/19 01:35:03;;;;;;;1.30;0.70;;;;;24.20;99779.00;;;;2568968;23;20662;-63
2023/09/19 01:36:05;;;;;;;1.13;0.60;;;;;24.20;99779.00;;;;2538895;23;20602;-61
2023/09/19 01:37:05;;;;;;;2.03;0.65;;;;;24.30;99780.00;;;;2565748;23;20548;-62
2023/09/19 01:38:09;;;;;;;1.97;1.00;;;;;24.30;99788.00;;;;2577504;23;20188;-62
2023/09/19 01:39:12;;;;;;;1.38;1.00;;;;;24.20;99787.00;;;;2590532;22;20195;-62
2023/09/19 01:40:17;;;;;;;1.58;0.80;;;;;24.20;99789.00;;;;2564462;23;20667;-62
2023/09/19 01:41:20;;;;;;;1.25;0.85;;;;;24.30;99788.00;;;;2539873;23;20212;-62
2023/09/19 01:42:41;;;;;;;1.27;0.80;;;;;24.30;99799.00;;;;2555279;23;20251;-61
2023/09/19 01:43:42;;;;;;;1.40;0.95;;;;;24.20;99794.00;;;;2556990;23;20193;-63
2023/09/19 01:44:55;;;;;;;1.35;0.77;;;;;24.20;99793.00;;;;2541469;23;20190;-62
2023/09/19 01:46:05;;;;;;;2.38;1.10;;;;;24.20;99800.00;;;;2530790;23;20437;-63
2023/09/19 01:47:12;;;;;;;1.50;0.75;;;;;24.20;99794.00;;;;2556182;23;20204;-62
2023/09/19 01:48:38;;;;;;;1.15;0.90;;;;;24.20;99792.00;;;;2566386;23;20200;-62
2023/09/19 01:49:55;;;;;;;1.10;0.70;;;;;24.20;99804.00;;;;2569497;23;20718;-61
2023/09/19 01:50:59;;;;;;;1.27;0.80;;;;;24.20;99804.00;;;;2541915;23;20200;-62
2023/09/19 01:52:13;;;;;;;1.48;0.80;;;;;24.20;99804.00;;;;2567609;22;20196;-63
2023/09/19 01:53:23;;;;;;;1.15;0.63;;;;;24.20;99794.00;;;;2564963;23;20200;-62
2023/09/19 01:54:30;;;;;;;1.05;0.75;;;;;24.20;99805.00;;;;2557911;23;20208;-63
2023/09/19 01:55:30;;;;;;;1.80;0.90;;;;;24.20;99800.00;;;;2566507;23;20204;-62
2023/09/19 01:56:35;;;;;;;2.07;0.97;;;;;24.20;99800.00;;;;2562646;23;20614;-62
2023/09/19 01:57:59;;;;;;;1.95;0.90;;;;;24.20;99804.00;;;;2565295;23;20200;-61
2023/09/19 01:59:04;;;;;;;2.05;0.88;;;;;24.20;99796.00;;;;2574831;22;20679;-61
2023/09/19 02:00:06;;;;;;;1.20;0.80;;;;;24.30;99772.00;;;;2578241;23;20243;-62
2023/09/19 02:01:07;;;;;;;1.70;0.77;;;;;24.20;99794.00;;;;2549987;23;20205;-62
2023/09/19 02:02:08;;;;;;;1.33;0.88;;;;;24.20;99793.00;;;;2540979;23;20533;-62
2023/09/19 02:03:09;;;;;;;1.70;0.90;;;;;24.20;99802.00;;;;2540331;23;20194;-62
2023/09/19 02:04:10;;;;;;;1.57;0.93;;;;;24.20;99804.00;;;;2553642;23;20420;-62
2023/09/19 02:05:10;;;;;;;1.50;0.80;;;;;24.20;99826.00;;;;2565462;23;20442;-61
2023/09/19 02:06:17;;;;;;;1.37;0.67;;;;;24.20;99802.00;;;;2550242;23;20659;-62
2023/09/19 02:07:17;;;;;;;1.50;0.80;;;;;24.20;99746.00;;;;2566412;23;20200;-62
2023/09/19 02:08:19;;;;;;;1.57;0.83;;;;;24.20;99804.00;;;;2564032;23;20200;-62
2023/09/19 02:09:19;;;;;;;1.35;0.80;;;;;24.20;99797.00;;;;2576840;22;20181;-62
2023/09/19 02:10:20;;;;;;;1.90;1.00;;;;;24.20;99798.00;;;;2590706;22;20341;-61
2023/09/19 02:11:20;;;;;;;2.27;0.80;;;;;24.20;99801.00;;;;2563130;23;20195;-62
2023/09/19 02:12:20;;;;;;;2.43;1.00;;;;;24.20;99808.00;;;;2577338;22;20204;-61
2023/09/19 02:13:21;;;;;;;1.70;0.97;;;;;24.20;99810.00;;;;2577915;23;20211;-63
2023/09/19 02:14:22;;;;;;;1.75;0.80;;;;;24.20;99809.00;;;;2553325;23;20236;-62
2023/09/19 02:15:22;;;;;;;1.60;0.80;;;;;24.20;99807.00;;;;2552611;23;20205;-61
2023/09/19 02:16:23;;;;;;;1.93;0.70;;;;;24.20;99808.00;;;;2562948;23;20614;-62
2023/09/19 02:17:25;;;;;;;1.67;1.03;;;;;24.20;99809.00;;;;2577559;23;20239;-63
2023/09/19 02:18:28;;;;;;;1.20;0.90;;;;;24.20;99808.00;;;;2578293;22;20197;-62
2023/09/19 02:19:29;;;;;;;2.00;1.00;;;;;24.20;99818.00;;;;2576392;23;20203;-63
2023/09/19 02:20:30;;;;;;;1.40;1.00;;;;;24.20;99818.00;;;;2578706;22;20197;-61
2023/09/19 02:21:30;;;;;;;1.90;0.90;;;;;24.20;99812.00;;;;2576077;22;20301;-61
2023/09/19 02:22:31;;;;;;;1.40;0.90;;;;;24.20;99819.00;;;;2590809;22;20204;-61
2023/09/19 02:23:31;;;;;;;1.40;0.70;;;;;24.20;99820.00;;;;2590646;22;20208;-62
2023/09/19 02:24:31;;;;;;;2.10;1.00;;;;;24.20;99818.00;;;;2577377;23;20215;-63
2023/09/19 02:25:32;;;;;;;1.73;1.00;;;;;24.20;99832.00;;;;2577902;23;20192;-62
2023/09/19 02:26:35;;;;;;;1.93;0.90;;;;;24.20;99822.00;;;;2575674;22;20274;-61
2023/09/19 02:27:36;;;;;;;2.03;0.90;;;;;24.20;99826.00;;;;2577202;22;20267;-62
2023/09/19 02:28:36;;;;;;;1.30;0.70;;;;;24.20;99825.00;;;;2578728;22;20192;-62
2023/09/19 02:29:37;;;;;;;1.57;0.80;;;;;24.20;99831.00;;;;2589717;22;20195;-62
2023/09/19 02:30:37;;;;;;;1.83;0.90;;;;;24.20;99830.00;;;;2591079;22;20803;-62
2023/09/19 02:31:37;;;;;;;1.83;0.70;;;;;24.20;99831.00;;;;2562429;22;20678;-61
2023/09/19 02:32:38;;;;;;;2.13;0.90;;;;;24.20;99834.00;;;;2577926;23;20214;-62
2023/09/19 02:33:39;;;;;;;1.60;1.00;;;;;24.20;99834.00;;;;2590588;22;20244;-62
2023/09/19 02:34:39;;;;;;;1.60;0.80;;;;;24.20;99838.00;;;;2591106;22;20196;-62
2023/09/19 02:35:40;;;;;;;1.50;0.80;;;;;24.20;99826.00;;;;2591352;22;20261;-61
2023/09/19 02:36:40;;;;;;;1.90;0.90;;;;;24.20;99830.00;;;;2562109;23;20642;-63
2023/09/19 02:37:40;;;;;;;1.00;0.70;;;;;24.20;99828.00;;;;2577630;23;20196;-62
2023/09/19 02:38:41;;;;;;;1.30;0.90;;;;;24.20;99842.00;;;;2576910;23;20196;-62
2023/09/19 02:39:41;;;;;;;1.40;0.80;;;;;24.20;99839.00;;;;2576371;23;20200;-64
2023/09/19 02:40:43;;;;;;;1.97;1.00;;;;;24.20;99836.00;;;;2590526;22;20870;-63
2023/09/19 02:41:43;;;;;;;1.33;0.80;;;;;24.20;99835.00;;;;2576433;22;20660;-62
2023/09/19 02:42:52;;;;;;;1.20;0.80;;;;;24.10;99837.00;;;;2577966;23;20457;-62
2023/09/19 02:43:53;;;;;;;1.60;0.85;;;;;24.20;99836.00;;;;2566458;23;20197;-63
2023/09/19 02:44:54;;;;;;;1.98;0.90;;;;;24.20;99831.00;;;;2565461;23;20192;-62
2023/09/19 02:45:54;;;;;;;1.27;0.80;;;;;24.20;99839.00;;;;2566519;23;20263;-63
2023/09/19 02:46:55;;;;;;;1.53;1.10;;;;;24.20;99844.00;;;;2589871;22;20202;-62
2023/09/19 02:47:55;;;;;;;1.67;0.70;;;;;24.20;99830.00;;;;2590631;22;20199;-62
2023/09/19 02:48:55;;;;;;;1.43;0.80;;;;;24.20;99847.00;;;;2576832;23;20195;-62
2023/09/19 02:49:56;;;;;;;2.10;0.90;;;;;24.20;99832.00;;;;2577827;23;20193;-61
2023/09/19 02:50:56;;;;;;;2.00;0.90;;;;;24.20;99839.00;;;;2576060;22;20210;-62
2023/09/19 02:51:59;;;;;;;1.80;0.93;;;;;24.20;99858.00;;;;2591043;22;20191;-61
2023/09/19 02:52:59;;;;;;;2.25;1.05;;;;;24.10;99841.00;;;;2577181;23;20188;-63
2023/09/19 02:54:00;;;;;;;2.07;0.90;;;;;24.20;99842.00;;;;2577388;22;20189;-62
2023/09/19 02:55:00;;;;;;;1.20;0.70;;;;;24.20;99847.00;;;;2590605;22;20199;-61
2023/09/19 02:56:01;;;;;;;1.20;0.70;;;;;24.20;99866.00;;;;2576406;22;20206;-61
2023/09/19 02:57:03;;;;;;;1.70;0.90;;;;;24.20;99851.00;;;;2590255;22;20433;-63
2023/09/19 02:58:05;;;;;;;1.70;0.90;;;;;24.20;99850.00;;;;2577624;23;20267;-62
2023/09/19 02:59:05;;;;;;;1.73;0.80;;;;;24.20;99849.00;;;;2577406;22;20431;-61
2023/09/19 03:00:10;;;;;;;1.40;0.90;;;;;24.20;99848.00;;;;2590385;22;20262;-62
2023/09/19 03:01:12;;;;;;;2.00;0.95;;;;;24.20;99863.00;;;;2550222;23;20197;-62
2023/09/19 03:02:12;;;;;;;1.85;0.93;;;;;24.20;99854.00;;;;2539019;23;20205;-62
2023/09/19 03:03:13;;;;;;;2.13;0.87;;;;;24.20;99860.00;;;;2577674;23;20267;-61
2023/09/19 03:04:19;;;;;;;2.00;0.90;;;;;24.20;99859.00;;;;2590717;22;20561;-61
2023/09/19 03:05:20;;;;;;;1.40;0.90;;;;;24.20;99861.00;;;;2577751;23;20223;-63
2023/09/19 03:06:21;;;;;;;1.88;0.93;;;;;24.20;99863.00;;;;2550185;23;20248;-62
2023/09/19 03:07:21;;;;;;;2.27;0.93;;;;;24.20;99859.00;;;;2577759;22;21052;-61
2023/09/19 03:08:22;;;;;;;1.23;0.60;;;;;24.20;99860.00;;;;2577372;23;20196;-63
2023/09/19 03:09:23;;;;;;;1.37;1.00;;;;;24.20;99863.00;;;;2563765;23;20200;-61
2023/09/19 03:10:24;;;;;;;1.57;0.87;;;;;24.20;99867.00;;;;2565426;23;20280;-62
2023/09/19 03:11:25;;;;;;;1.48;0.77;;;;;23.70;99867.00;;;;2562592;22;20435;-61
2023/09/19 03:12:28;;;;;;;2.03;1.07;;;;;24.10;99860.00;;;;2590965;22;20248;-62
2023/09/19 03:13:30;;;;;;;2.33;0.90;;;;;24.20;99866.00;;;;2590605;22;20286;-62
2023/09/19 03:14:35;;;;;;;1.17;0.73;;;;;24.20;99867.00;;;;2591461;22;20204;-61
2023/09/19 03:15:38;;;;;;;2.10;1.10;;;;;24.20;99875.00;;;;2590996;22;20200;-61
2023/09/19 03:16:39;;;;;;;1.67;0.90;;;;;24.20;99866.00;;;;2575714;22;20187;-62
2023/09/19 03:17:43;;;;;;;2.70;0.90;;;;;24.20;99863.00;;;;2590896;22;20244;-62
2023/09/19 03:18:44;;;;;;;2.15;0.90;;;;;24.20;99869.00;;;;2575902;23;20218;-64
2023/09/19 03:19:45;;;;;;;3.90;1.00;;;;;24.20;99867.00;;;;2578480;22;20667;-62
2023/09/19 03:20:55;;;;;;;2.90;0.77;;;;;24.20;99867.00;;;;2590448;22;20278;-61
2023/09/19 03:21:57;;;;;;;2.30;1.05;;;;;24.20;99861.00;;;;2590606;22;20195;-62
2023/09/19 03:22:57;;;;;;;2.50;1.00;;;;;24.20;99859.00;;;;2590065;22;20226;-62
2023/09/19 03:23:58;;;;;;;1.83;0.90;;;;;24.20;99855.00;;;;2590941;22;20195;-61
2023/09/19 03:25:00;;;;;;;2.50;1.17;;;;;24.20;99867.00;;;;2591048;22;20630;-62
2023/09/19 03:26:01;;;;;;;1.25;0.80;;;;;24.20;99871.00;;;;2575648;22;20196;-61
2023/09/19 03:27:01;;;;;;;2.90;1.00;;;;;24.20;99876.00;;;;2590085;22;20227;-62
2023/09/19 03:28:05;;;;;;;1.70;1.00;;;;;24.20;99870.00;;;;2589851;22;20199;-63
2023/09/19 03:29:06;;;;;;;1.50;0.85;;;;;24.20;99865.00;;;;2590135;22;20202;-61
2023/09/19 03:30:08;;;;;;;1.05;0.75;;;;;24.20;99862.00;;;;2576967;23;20196;-61
2023/09/19 03:31:09;;;;;;;1.38;0.90;;;;;23.10;99862.00;;;;2562982;22;20188;-61
2023/09/19 03:32:12;;;;;;;2.07;1.07;;;;;24.20;99865.00;;;;2590799;22;20325;-64
2023/09/19 03:33:12;;;;;;;1.60;0.75;;;;;24.20;99865.00;;;;2577235;22;20250;-64
2023/09/19 03:34:13;;;;;;;2.00;1.10;;;;;24.20;99868.00;;;;2578349;22;20276;-64
2023/09/19 03:35:14;;;;;;;1.60;1.00;;;;;24.20;99870.00;;;;2590740;22;20201;-63
2023/09/19 03:36:14;;;;;;;1.30;0.80;;;;;24.20;99871.00;;;;2550727;23;20245;-63
2023/09/19 03:37:14;;;;;;;1.57;0.70;;;;;24.10;99869.00;;;;2564226;23;21104;-63
2023/09/19 03:38:15;;;;;;;1.70;0.90;;;;;24.20;99868.00;;;;2590563;22;20219;-63
2023/09/19 03:39:15;;;;;;;1.77;0.80;;;;;24.20;99812.00;;;;2589807;22;20262;-63
2023/09/19 03:40:17;;;;;;;1.37;0.90;;;;;24.10;99873.00;;;;2590829;22;20196;-63
2023/09/19 03:41:17;;;;;;;2.60;0.95;;;;;24.10;99871.00;;;;2576055;22;20203;-62
2023/09/19 03:42:17;;;;;;;2.50;1.00;;;;;23.50;99866.00;;;;2590287;22;20279;-64
2023/09/19 03:43:19;;;;;;;1.30;0.67;;;;;24.10;99822.00;;;;2591140;22;20278;-62
2023/09/19 03:44:19;;;;;;;1.80;0.85;;;;;24.10;99876.00;;;;2576864;23;20681;-62
2023/09/19 03:45:19;;;;;;;2.00;0.90;;;;;24.20;99871.00;;;;2577864;22;20196;-63
2023/09/19 03:46:19;;;;;;;1.60;0.83;;;;;24.20;99910.00;;;;2563015;23;20231;-62
2023/09/19 03:47:20;;;;;;;1.70;1.27;;;;;24.20;99872.00;;;;2564347;23;20781;-63
2023/09/19 03:48:21;;;;;;;1.73;1.00;;;;;24.10;99875.00;;;;2565120;23;20543;-62
2023/09/19 03:49:21;;;;;;;1.02;0.70;;;;;24.20;99867.00;;;;2564525;23;20283;-63
2023/09/19 03:50:22;;;;;;;2.00;0.80;;;;;24.10;99881.00;;;;2578577;22;20196;-63
2023/09/19 03:51:22;;;;;;;1.50;0.83;;;;;24.20;99871.00;;;;2563345;23;20204;-63
2023/09/19 03:52:22;;;;;;;2.20;0.80;;;;;24.10;99867.00;;;;2578467;22;20230;-62
2023/09/19 03:53:23;;;;;;;1.70;0.77;;;;;24.20;99871.00;;;;2591601;22;20195;-63
2023/09/19 03:54:23;;;;;;;2.30;0.80;;;;;24.10;99870.00;;;;2591435;22;20191;-63
2023/09/19 03:55:23;;;;;;;2.57;1.20;;;;;24.20;99872.00;;;;2592115;22;20276;-63
2023/09/19 03:56:24;;;;;;;3.07;0.80;;;;;24.10;99865.00;;;;2575563;22;20777;-63
2023/09/19 03:57:24;;;;;;;2.13;1.07;;;;;24.10;99865.00;;;;2591534;22;20284;-63
2023/09/19 03:58:24;;;;;;;1.60;0.80;;;;;24.10;99871.00;;;;2576420;23;20655;-63
2023/09/19 03:59:25;;;;;;;1.60;0.70;;;;;24.10;99867.00;;;;2577600;23;20621;-63
2023/09/19 04:00:26;;;;;;;1.50;0.80;;;;;24.10;99869.00;;;;2578608;23;20538;-62
2023/09/19 04:01:27;;;;;;;2.27;1.10;;;;;24.10;99859.00;;;;2562383;22;20833;-62
2023/09/19 04:02:32;;;;;;;2.72;1.10;;;;;24.10;99866.00;;;;2591882;22;20187;-62
2023/09/19 04:03:46;;;;;;;1.90;0.90;;;;;24.10;99868.00;;;;2591971;22;20199;-62
2023/09/19 04:04:46;;;;;;;2.13;0.98;;;;;24.10;99865.00;;;;2590984;22;20191;-63
2023/09/19 04:05:49;;;;;;;2.40;1.00;;;;;24.10;99866.00;;;;2591905;22;20630;-63
2023/09/19 04:06:50;;;;;;;1.73;1.00;;;;;24.10;99869.00;;;;2562993;23;20192;-63
2023/09/19 04:07:51;;;;;;;2.43;1.10;;;;;24.10;99859.00;;;;2579075;22;20555;-63
2023/09/19 04:08:51;;;;;;;1.33;0.83;;;;;24.10;99863.00;;;;2590570;22;20445;-63
2023/09/19 04:09:54;;;;;;;1.47;0.80;;;;;24.10;99870.00;;;;2591530;22;20191;-63
2023/09/19 04:10:55;;;;;;;1.42;1.02;;;;;24.10;99895.00;;;;2577778;22;20231;-63
2023/09/19 04:11:56;;;;;;;2.00;0.87;;;;;24.20;99861.00;;;;2591149;22;20583;-63
2023/09/19 04:12:56;;;;;;;2.60;0.93;;;;;24.10;99859.00;;;;2591788;22;20196;-63
2023/09/19 04:13:57;;;;;;;3.20;1.00;;;;;24.10;99862.00;;;;2577644;23;20246;-62
2023/09/19 04:14:57;;;;;;;2.43;1.10;;;;;24.10;99869.00;;;;2578699;22;20188;-63
2023/09/19 04:15:57;;;;;;;1.57;1.00;;;;;24.10;99858.00;;;;2576745;22;20187;-63
2023/09/19 04:16:58;;;;;;;1.70;1.10;;;;;24.10;99871.00;;;;2578126;23;20189;-63
2023/09/19 04:17:58;;;;;;;1.40;0.80;;;;;24.10;99866.00;;;;2578245;23;20188;-63
2023/09/19 04:18:58;;;;;;;1.60;1.00;;;;;24.10;99870.00;;;;2590530;22;20299;-62
2023/09/19 04:19:59;;;;;;;3.80;1.13;;;;;24.10;99867.00;;;;2578385;23;20199;-63
2023/09/19 04:21:03;;;;;;;1.33;0.77;;;;;24.10;99865.00;;;;2550699;23;20196;-63
2023/09/19 04:22:04;;;;;;;2.00;1.00;;;;;24.10;99873.00;;;;2578962;22;20408;-62
2023/09/19 04:23:05;;;;;;;2.33;1.27;;;;;24.10;99830.00;;;;2591188;22;20195;-62
2023/09/19 04:24:06;;;;;;;2.60;1.00;;;;;24.10;99871.00;;;;2578371;23;20322;-62
2023/09/19 04:25:06;;;;;;;2.57;0.90;;;;;24.10;99873.00;;;;2578753;22;20265;-62
2023/09/19 04:26:07;;;;;;;1.77;1.07;;;;;24.10;99871.00;;;;2576392;22;21056;-63
2023/09/19 04:27:09;;;;;;;1.90;0.90;;;;;24.10;99873.00;;;;2578175;23;20236;-63
2023/09/19 04:28:12;;;;;;;1.50;0.80;;;;;24.10;99869.00;;;;2577656;22;20192;-62
2023/09/19 04:29:14;;;;;;;2.45;1.08;;;;;24.10;99864.00;;;;2590426;22;20283;-65
2023/09/19 04:30:14;;;;;;;1.75;0.68;;;;;24.10;99871.00;;;;2577642;23;20245;-63
2023/09/19 04:31:15;;;;;;;1.40;0.77;;;;;24.10;99869.00;;;;2551747;23;20200;-62
2023/09/19 04:32:17;;;;;;;2.30;0.90;;;;;24.10;99866.00;;;;2574748;22;20666;-62
2023/09/19 04:33:17;;;;;;;1.63;0.80;;;;;24.10;99876.00;;;;2590298;22;20191;-63
2023/09/19 04:34:18;;;;;;;1.60;0.70;;;;;23.40;99874.00;;;;2591968;22;20195;-63
2023/09/19 04:35:18;;;;;;;3.00;1.20;;;;;24.10;99869.00;;;;2565038;23;20235;-64
2023/09/19 04:36:18;;;;;;;2.17;0.90;;;;;24.10;99924.00;;;;2526970;23;20275;-63
2023/09/19 04:37:19;;;;;;;1.87;0.83;;;;;24.10;99875.00;;;;2564468;23;20683;-63
2023/09/19 04:38:19;;;;;;;2.13;0.77;;;;;24.10;99877.00;;;;2590635;22;20649;-63
2023/09/19 04:39:20;;;;;;;1.67;0.87;;;;;24.10;99866.00;;;;2591046;22;20626;-63
2023/09/19 04:40:22;;;;;;;3.17;0.90;;;;;24.10;99872.00;;;;2591164;22;20219;-63
2023/09/19 04:41:23;;;;;;;2.50;1.00;;;;;24.10;99873.00;;;;2563563;23;20283;-62
2023/09/19 04:42:25;;;;;;;2.15;0.80;;;;;24.10;99875.00;;;;2577990;22;20204;-63
2023/09/19 04:43:26;;;;;;;2.58;1.15;;;;;24.10;99870.00;;;;2591729;22;20274;-62
2023/09/19 04:44:26;;;;;;;1.83;1.00;;;;;24.10;99878.00;;;;2578059;22;20250;-63
2023/09/19 04:45:27;;;;;;;1.70;0.90;;;;;24.10;99867.00;;;;2578465;23;20795;-63
2023/09/19 04:46:27;;;;;;;2.00;1.15;;;;;24.10;99875.00;;;;2550969;23;20200;-63
2023/09/19 04:47:28;;;;;;;1.80;1.00;;;;;24.10;99864.00;;;;2565073;23;20792;-62
2023/09/19 04:48:29;;;;;;;2.40;1.00;;;;;24.10;99871.00;;;;2591018;22;20214;-63
2023/09/19 04:49:29;;;;;;;1.93;0.87;;;;;24.10;99899.00;;;;2590211;22;20202;-62
2023/09/19 04:50:30;;;;;;;2.17;0.93;;;;;24.10;99877.00;;;;2591880;22;20455;-62
2023/09/19 04:51:34;;;;;;;1.60;0.97;;;;;24.10;99869.00;;;;2576183;22;20291;-62
2023/09/19 04:52:34;;;;;;;1.00;0.70;;;;;24.10;99872.00;;;;2592002;22;20195;-62
2023/09/19 04:53:35;;;;;;;1.97;0.90;;;;;24.10;99879.00;;;;2591405;22;20201;-62
2023/09/19 04:54:35;;;;;;;1.67;0.80;;;;;24.10;99871.00;;;;2591481;22;20202;-63
2023/09/19 04:55:36;;;;;;;1.27;0.67;;;;;24.10;99870.00;;;;2591446;22;20187;-63
2023/09/19 04:56:40;;;;;;;3.43;1.17;;;;;24.10;99879.00;;;;2576364;22;20262;-62
2023/09/19 04:57:40;;;;;;;2.22;1.00;;;;;24.10;99883.00;;;;2576207;23;20200;-62
2023/09/19 04:58:40;;;;;;;1.90;1.07;;;;;24.10;99885.00;;;;2578318;22;20204;-62
2023/09/19 04:59:41;;;;;;;1.53;0.87;;;;;24.10;99878.00;;;;2590646;22;20192;-62
2023/09/19 05:00:41;;;;;;;1.47;0.73;;;;;24.10;99881.00;;;;2591837;22;20195;-62
2023/09/19 05:01:41;;;;;;;2.33;0.90;;;;;24.10;99879.00;;;;2574253;22;20302;-62
2023/09/19 05:02:42;;;;;;;2.57;0.87;;;;;24.10;99889.00;;;;2578129;23;20199;-62
2023/09/19 05:03:42;;;;;;;1.37;0.83;;;;;24.10;99888.00;;;;2577805;22;20526;-62
2023/09/19 05:04:43;;;;;;;2.40;1.10;;;;;24.10;99870.00;;;;2588629;22;20195;-62
2023/09/19 05:05:44;;;;;;;2.20;1.20;;;;;24.10;99898.00;;;;2576353;23;20666;-62
2023/09/19 05:06:44;;;;;;;1.53;0.77;;;;;24.10;99884.00;;;;2563288;23;20196;-66
2023/09/19 05:07:45;;;;;;;2.67;1.20;;;;;24.10;99889.00;;;;2591273;22;20525;-62
2023/09/19 05:08:46;;;;;;;1.77;0.90;;;;;24.10;99895.00;;;;2575161;23;20446;-63
2023/09/19 05:09:46;;;;;;;1.10;0.70;;;;;24.10;99907.00;;;;2575788;22;20901;-63
2023/09/19 05:10:47;;;;;;;2.23;1.10;;;;;24.10;99894.00;;;;2577358;23;20216;-62
2023/09/19 05:11:48;;;;;;;2.30;1.10;;;;;24.10;99909.00;;;;2554664;22;20196;-63
2023/09/19 05:12:51;;;;;;;2.30;1.00;;;;;24.10;99912.00;;;;2591268;22;20198;-63
2023/09/19 05:13:52;;;;;;;2.45;0.80;;;;;24.10;99919.00;;;;2589257;22;20426;-62